createdAt,value
2019-03-03T00:00:03.600Z,5.79
2019-03-03T00:01:13.728Z,5.91
2019-03-03T00:02:23.871Z,5.88
2019-03-03T00:03:34.204Z,5.72
2019-03-03T00:04:44.346Z,5.9
2019-03-03T00:05:54.463Z,5.86
2019-03-03T00:07:04.600Z,5.93
2019-03-03T00:08:14.732Z,5.86
2019-03-03T00:09:24.624Z,5.71
2019-03-03T00:10:34.765Z,5.9
2019-03-03T00:11:44.891Z,5.75
2019-03-03T00:12:55.233Z,5.75
2019-03-03T00:14:05.360Z,5.8
2019-03-03T00:15:15.514Z,5.86
2019-03-03T00:16:25.656Z,5.84
2019-03-03T00:17:35.776Z,5.9
2019-03-03T00:18:45.895Z,5.88
2019-03-03T00:19:56.012Z,5.88
2019-03-03T00:21:06.149Z,5.99
2019-03-03T00:22:16.269Z,5.88
2019-03-03T00:23:26.377Z,5.91
2019-03-03T00:24:36.509Z,5.99
2019-03-03T00:25:46.878Z,5.94
2019-03-03T00:26:57.014Z,6.08
2019-03-03T00:28:07.120Z,5.96
2019-03-03T00:29:17.246Z,6.09
2019-03-03T00:30:27.384Z,6.06
2019-03-03T00:31:37.161Z,6.02
2019-03-03T00:32:47.095Z,6.05
2019-03-03T00:33:57.059Z,6.09
2019-03-03T00:35:07.204Z,6.03
2019-03-03T00:36:17.326Z,6.05
2019-03-03T00:37:27.457Z,6.09
2019-03-03T00:38:37.587Z,6.14
2019-03-03T00:39:47.712Z,6.08
2019-03-03T00:40:57.817Z,6.09
2019-03-03T00:42:07.926Z,6.12
2019-03-03T00:43:18.110Z,6.17
2019-03-03T00:44:28.255Z,6.16
2019-03-03T00:45:38.376Z,6.16
2019-03-03T00:46:48.511Z,6.17
2019-03-03T00:47:58.670Z,6.12
2019-03-03T00:49:08.797Z,6.12
2019-03-03T00:50:18.921Z,6.17
2019-03-03T00:51:29.253Z,6.16
2019-03-03T00:52:40.351Z,6.17
2019-03-03T00:53:50.468Z,6.19
2019-03-03T00:55:00.590Z,6.12
2019-03-03T00:56:10.712Z,6.21
2019-03-03T00:57:20.819Z,6.23
2019-03-03T00:58:30.934Z,6.12
2019-03-03T00:59:41.044Z,6.19
2019-03-03T01:00:53.425Z,6.24
2019-03-03T01:02:03.545Z,6.27
2019-03-03T01:03:13.660Z,6.31
2019-03-03T01:04:23.788Z,6.24
2019-03-03T01:05:34.120Z,6.34
2019-03-03T01:06:44.307Z,6.28
2019-03-03T01:07:54.415Z,6.3
2019-03-03T01:09:04.511Z,6.28
2019-03-03T01:10:14.609Z,6.3
2019-03-03T01:11:24.756Z,6.34
2019-03-03T01:12:34.868Z,6.41
2019-03-03T01:13:44.989Z,6.35
2019-03-03T01:14:55.330Z,6.31
2019-03-03T01:16:05.658Z,6.31
2019-03-03T01:17:15.767Z,6.41
2019-03-03T01:18:25.895Z,6.41
2019-03-03T01:19:36.020Z,6.45
2019-03-03T01:20:46.121Z,6.48
2019-03-03T01:21:56.241Z,6.45
2019-03-03T01:23:08.095Z,6.44
2019-03-03T01:24:18.222Z,6.44
2019-03-03T01:25:28.556Z,6.39
2019-03-03T01:26:38.686Z,6.48
2019-03-03T01:27:48.804Z,6.44
2019-03-03T01:28:58.925Z,6.54
2019-03-03T01:30:09.040Z,6.46
2019-03-03T01:31:19.182Z,6.46
2019-03-03T01:32:29.339Z,6.48
2019-03-03T01:33:39.461Z,6.53
2019-03-03T01:34:49.573Z,6.52
2019-03-03T01:35:59.693Z,6.56
2019-03-03T01:37:09.794Z,6.53
2019-03-03T01:38:19.853Z,6.46
2019-03-03T01:39:29.960Z,6.52
2019-03-03T01:40:41.056Z,6.62
2019-03-03T01:41:51.183Z,6.54
2019-03-03T01:43:01.311Z,6.59
2019-03-03T01:44:11.518Z,6.52
2019-03-03T01:45:21.624Z,6.54
2019-03-03T01:46:31.724Z,6.64
2019-03-03T01:47:41.883Z,6.53
2019-03-03T01:48:52.003Z,6.56
2019-03-03T01:50:02.136Z,6.54
2019-03-03T01:51:12.241Z,6.63
2019-03-03T01:52:22.343Z,6.52
2019-03-03T01:53:31.875Z,6.59
2019-03-03T01:54:42.172Z,6.53
2019-03-03T01:55:52.292Z,6.63
2019-03-03T01:57:02.406Z,6.56
2019-03-03T01:58:12.517Z,6.62
2019-03-03T01:59:22.628Z,6.56
2019-03-03T02:00:32.740Z,6.63
2019-03-03T02:01:42.852Z,6.63
2019-03-03T02:02:52.957Z,6.62
2019-03-03T02:04:03.080Z,6.6
2019-03-03T02:05:13.184Z,6.66
2019-03-03T02:06:23.296Z,6.66
2019-03-03T02:07:33.417Z,6.72
2019-03-03T02:08:43.176Z,6.75
2019-03-03T02:09:53.314Z,6.75
2019-03-03T02:11:03.443Z,6.77
2019-03-03T02:12:13.547Z,6.74
2019-03-03T02:13:23.657Z,6.72
2019-03-03T02:14:33.778Z,6.85
2019-03-03T02:15:43.936Z,6.84
2019-03-03T02:16:54.083Z,6.87
2019-03-03T02:18:04.189Z,6.87
2019-03-03T02:19:14.056Z,6.75
2019-03-03T02:20:24.166Z,6.78
2019-03-03T02:21:34.269Z,6.81
2019-03-03T02:22:44.161Z,6.79
2019-03-03T02:23:54.282Z,6.85
2019-03-03T02:25:04.426Z,6.85
2019-03-03T02:26:14.530Z,6.82
2019-03-03T02:27:24.672Z,6.82
2019-03-03T02:28:34.809Z,6.85
2019-03-03T02:29:44.927Z,6.79
2019-03-03T02:30:55.040Z,6.9
2019-03-03T02:32:05.160Z,6.9
2019-03-03T02:33:15.285Z,6.92
2019-03-03T02:34:25.404Z,6.9
2019-03-03T02:35:35.363Z,6.89
2019-03-03T02:36:45.545Z,6.93
2019-03-03T02:37:55.415Z,6.92
2019-03-03T02:39:05.567Z,6.96
2019-03-03T02:40:15.697Z,7
2019-03-03T02:41:25.820Z,7.11
2019-03-03T02:42:35.960Z,6.99
2019-03-03T02:43:45.730Z,7.13
2019-03-03T02:44:55.863Z,7.03
2019-03-03T02:46:05.992Z,7.13
2019-03-03T02:47:16.127Z,7.13
2019-03-03T02:48:26.258Z,7.21
2019-03-03T02:49:36.130Z,7.21
2019-03-03T02:50:46.282Z,7.31
2019-03-03T02:51:56.402Z,7.28
2019-03-03T02:53:06.523Z,7.33
2019-03-03T02:54:16.645Z,7.36
2019-03-03T02:55:26.766Z,7.33
2019-03-03T02:56:36.894Z,7.41
2019-03-03T02:57:47.024Z,7.33
2019-03-03T02:58:57.154Z,7.37
2019-03-03T03:00:07.278Z,7.4
2019-03-03T03:01:17.400Z,7.44
2019-03-03T03:02:27.525Z,7.48
2019-03-03T03:03:37.636Z,7.44
2019-03-03T03:04:47.751Z,7.51
2019-03-03T03:05:57.937Z,7.44
2019-03-03T03:07:08.056Z,7.56
2019-03-03T03:08:18.178Z,7.49
2019-03-03T03:09:28.347Z,7.47
2019-03-03T03:10:38.121Z,7.44
2019-03-03T03:11:48.263Z,7.43
2019-03-03T03:12:58.410Z,7.44
2019-03-03T03:14:08.564Z,7.49
2019-03-03T03:15:18.932Z,7.49
2019-03-03T03:16:29.041Z,7.43
2019-03-03T03:17:39.160Z,7.52
2019-03-03T03:18:49.272Z,7.49
2019-03-03T03:19:59.399Z,7.48
2019-03-03T03:21:09.596Z,7.44
2019-03-03T03:22:19.707Z,7.47
2019-03-03T03:23:29.836Z,7.41
2019-03-03T03:24:39.953Z,7.48
2019-03-03T03:25:50.152Z,7.47
2019-03-03T03:27:00.282Z,7.51
2019-03-03T03:28:12.699Z,7.48
2019-03-03T03:29:22.802Z,7.56
2019-03-03T03:30:32.997Z,7.51
2019-03-03T03:31:43.124Z,7.51
2019-03-03T03:32:53.239Z,7.52
2019-03-03T03:34:03.405Z,7.49
2019-03-03T03:35:13.300Z,7.48
2019-03-03T03:36:23.421Z,7.44
2019-03-03T03:37:33.546Z,7.56
2019-03-03T03:38:43.659Z,7.54
2019-03-03T03:39:53.776Z,7.47
2019-03-03T03:41:03.523Z,7.48
2019-03-03T03:42:13.643Z,7.48
2019-03-03T03:43:23.750Z,7.4
2019-03-03T03:44:33.518Z,7.44
2019-03-03T03:45:43.634Z,7.4
2019-03-03T03:46:53.753Z,7.48
2019-03-03T03:48:03.876Z,7.43
2019-03-03T03:49:13.996Z,7.43
2019-03-03T03:50:24.116Z,7.43
2019-03-03T03:51:34.078Z,7.44
2019-03-03T03:52:44.214Z,7.55
2019-03-03T03:53:54.340Z,7.47
2019-03-03T03:55:04.458Z,7.59
2019-03-03T03:56:14.622Z,7.51
2019-03-03T03:57:24.793Z,7.48
2019-03-03T03:58:34.565Z,7.54
2019-03-03T03:59:44.692Z,7.51
2019-03-03T04:00:54.565Z,7.55
2019-03-03T04:02:04.666Z,7.54
2019-03-03T04:03:14.775Z,7.48
2019-03-03T04:04:24.903Z,7.55
2019-03-03T04:05:35.014Z,7.54
2019-03-03T04:06:45.124Z,7.66
2019-03-03T04:07:55.275Z,7.58
2019-03-03T04:09:06.859Z,7.55
2019-03-03T04:10:17.032Z,7.52
2019-03-03T04:11:27.212Z,7.56
2019-03-03T04:12:37.329Z,7.55
2019-03-03T04:13:47.456Z,7.51
2019-03-03T04:14:57.565Z,7.52
2019-03-03T04:16:08.670Z,7.52
2019-03-03T04:17:18.851Z,7.48
2019-03-03T04:18:28.962Z,7.43
2019-03-03T04:19:39.086Z,7.44
2019-03-03T04:20:49.202Z,7.49
2019-03-03T04:21:59.341Z,7.34
2019-03-03T04:23:09.268Z,7.34
2019-03-03T04:24:19.374Z,7.31
2019-03-03T04:25:29.488Z,7.33
2019-03-03T04:26:39.731Z,7.31
2019-03-03T04:27:49.845Z,7.33
2019-03-03T04:28:59.958Z,7.26
2019-03-03T04:30:10.088Z,7.26
2019-03-03T04:31:20.194Z,7.24
2019-03-03T04:32:30.536Z,7.28
2019-03-03T04:33:40.641Z,7.17
2019-03-03T04:34:50.775Z,7.21
2019-03-03T04:36:00.901Z,7.22
2019-03-03T04:37:11.101Z,7.18
2019-03-03T04:38:20.977Z,7.21
2019-03-03T04:39:30.826Z,7.11
2019-03-03T04:40:40.926Z,7.22
2019-03-03T04:41:51.247Z,7.22
2019-03-03T04:43:01.355Z,7.21
2019-03-03T04:44:11.479Z,7.24
2019-03-03T04:45:21.590Z,7.22
2019-03-03T04:46:31.697Z,7.26
2019-03-03T04:47:41.794Z,7.22
2019-03-03T04:48:51.896Z,7.18
2019-03-03T04:50:02.010Z,7.22
2019-03-03T04:51:12.171Z,7.24
2019-03-03T04:52:22.281Z,7.29
2019-03-03T04:53:32.404Z,7.28
2019-03-03T04:54:42.484Z,7.24
2019-03-03T04:55:52.591Z,7.29
2019-03-03T04:57:02.692Z,7.21
2019-03-03T04:58:12.793Z,7.26
2019-03-03T04:59:22.898Z,7.26
2019-03-03T05:00:33.006Z,7.31
2019-03-03T05:01:43.123Z,7.26
2019-03-03T05:02:53.220Z,7.29
2019-03-03T05:04:03.344Z,7.26
2019-03-03T05:05:13.458Z,7.33
2019-03-03T05:06:23.560Z,7.37
2019-03-03T05:07:33.665Z,7.36
2019-03-03T05:08:43.782Z,7.44
2019-03-03T05:09:53.900Z,7.41
2019-03-03T05:11:04.006Z,7.4
2019-03-03T05:12:14.107Z,7.34
2019-03-03T05:13:24.227Z,7.44
2019-03-03T05:14:34.335Z,7.41
2019-03-03T05:15:44.454Z,7.34
2019-03-03T05:16:54.593Z,7.4
2019-03-03T05:18:04.741Z,7.41
2019-03-03T05:19:14.853Z,7.41
2019-03-03T05:20:24.992Z,7.4
2019-03-03T05:21:35.094Z,7.41
2019-03-03T05:22:45.217Z,7.51
2019-03-03T05:23:55.338Z,7.4
2019-03-03T05:25:05.440Z,7.44
2019-03-03T05:26:15.567Z,7.44
2019-03-03T05:27:25.669Z,7.49
2019-03-03T05:28:35.765Z,7.43
2019-03-03T05:29:45.878Z,7.44
2019-03-03T05:30:55.786Z,7.44
2019-03-03T05:32:05.883Z,7.47
2019-03-03T05:33:15.986Z,7.51
2019-03-03T05:34:26.088Z,7.33
2019-03-03T05:35:36.192Z,7.49
2019-03-03T05:36:46.297Z,7.41
2019-03-03T05:37:56.413Z,7.48
2019-03-03T05:39:06.306Z,7.44
2019-03-03T05:40:16.415Z,7.41
2019-03-03T05:41:26.535Z,7.41
2019-03-03T05:42:36.661Z,7.44
2019-03-03T05:43:46.767Z,7.36
2019-03-03T05:44:56.874Z,7.4
2019-03-03T05:46:07.013Z,7.36
2019-03-03T05:47:17.350Z,7.41
2019-03-03T05:48:27.463Z,7.37
2019-03-03T05:49:37.577Z,7.4
2019-03-03T05:50:47.707Z,7.39
2019-03-03T05:51:57.808Z,7.37
2019-03-03T05:53:07.932Z,7.33
2019-03-03T05:54:18.053Z,7.39
2019-03-03T05:55:28.160Z,7.41
2019-03-03T05:56:38.274Z,7.39
2019-03-03T05:57:48.376Z,7.39
2019-03-03T05:58:58.504Z,7.37
2019-03-03T06:00:08.616Z,7.4
2019-03-03T06:01:18.725Z,7.39
2019-03-03T06:02:28.890Z,7.4
2019-03-03T06:03:38.631Z,7.43
2019-03-03T06:04:48.742Z,7.44
2019-03-03T06:05:58.858Z,7.37
2019-03-03T06:07:08.722Z,7.37
2019-03-03T06:08:18.844Z,7.37
2019-03-03T06:09:28.939Z,7.41
2019-03-03T06:10:39.055Z,7.47
2019-03-03T06:11:49.174Z,7.44
2019-03-03T06:12:59.312Z,7.44
2019-03-03T06:14:09.436Z,7.44
2019-03-03T06:15:19.535Z,7.48
2019-03-03T06:16:29.643Z,7.55
2019-03-03T06:17:39.487Z,7.56
2019-03-03T06:18:49.616Z,7.59
2019-03-03T06:19:59.762Z,7.58
2019-03-03T06:21:09.893Z,7.61
2019-03-03T06:22:19.758Z,7.7
2019-03-03T06:23:29.884Z,7.64
2019-03-03T06:24:40.046Z,7.67
2019-03-03T06:25:50.161Z,7.64
2019-03-03T06:27:00.284Z,7.73
2019-03-03T06:28:10.393Z,7.64
2019-03-03T06:29:20.503Z,7.7
2019-03-03T06:30:30.612Z,7.72
2019-03-03T06:31:40.736Z,7.7
2019-03-03T06:32:50.850Z,7.69
2019-03-03T06:34:00.702Z,7.73
2019-03-03T06:35:10.814Z,7.77
2019-03-03T06:36:20.926Z,7.8
2019-03-03T06:37:31.062Z,7.8
2019-03-03T06:38:41.174Z,7.7
2019-03-03T06:39:51.227Z,7.76
2019-03-03T06:41:01.365Z,7.76
2019-03-03T06:42:11.475Z,7.79
2019-03-03T06:43:21.609Z,7.77
2019-03-03T06:44:31.772Z,7.77
2019-03-03T06:45:41.628Z,7.73
2019-03-03T06:46:51.736Z,7.77
2019-03-03T06:48:01.609Z,7.77
2019-03-03T06:49:11.457Z,7.76
2019-03-03T06:50:21.575Z,7.76
2019-03-03T06:51:31.689Z,7.79
2019-03-03T06:52:41.832Z,7.8
2019-03-03T06:53:51.930Z,7.84
2019-03-03T06:55:02.053Z,7.74
2019-03-03T06:56:12.181Z,7.82
2019-03-03T06:57:22.318Z,7.82
2019-03-03T06:58:32.443Z,7.73
2019-03-03T06:59:42.555Z,7.9
2019-03-03T07:00:52.650Z,7.9
2019-03-03T07:02:02.764Z,7.88
2019-03-03T07:03:12.375Z,7.87
2019-03-03T07:04:22.488Z,7.8
2019-03-03T07:05:32.608Z,7.8
2019-03-03T07:06:42.715Z,7.84
2019-03-03T07:07:52.825Z,7.87
2019-03-03T07:09:03.002Z,7.95
2019-03-03T07:10:13.114Z,7.9
2019-03-03T07:11:23.228Z,7.88
2019-03-03T07:12:33.349Z,7.98
2019-03-03T07:13:43.455Z,8.06
2019-03-03T07:14:53.675Z,8.05
2019-03-03T07:16:03.794Z,7.99
2019-03-03T07:17:13.795Z,8.12
2019-03-03T07:18:23.910Z,8.13
2019-03-03T07:19:34.047Z,8.21
2019-03-03T07:20:44.158Z,8.16
2019-03-03T07:21:54.269Z,8.3
2019-03-03T07:23:04.409Z,8.35
2019-03-03T07:24:14.516Z,8.34
2019-03-03T07:25:24.653Z,8.4
2019-03-03T07:26:34.790Z,8.32
2019-03-03T07:27:44.939Z,8.46
2019-03-03T07:28:55.066Z,8.49
2019-03-03T07:30:04.952Z,8.48
2019-03-03T07:31:15.074Z,8.57
2019-03-03T07:32:24.969Z,8.5
2019-03-03T07:33:35.141Z,8.52
2019-03-03T07:34:47.044Z,8.5
2019-03-03T07:35:57.288Z,8.55
2019-03-03T07:37:07.417Z,8.46
2019-03-03T07:38:17.530Z,8.63
2019-03-03T07:39:27.654Z,8.52
2019-03-03T07:40:37.779Z,8.55
2019-03-03T07:41:47.934Z,8.46
2019-03-03T07:42:57.811Z,8.52
2019-03-03T07:44:07.942Z,8.55
2019-03-03T07:45:18.080Z,8.74
2019-03-03T07:46:28.223Z,8.58
2019-03-03T07:47:38.322Z,8.67
2019-03-03T07:48:48.447Z,8.61
2019-03-03T07:49:58.550Z,8.61
2019-03-03T07:51:08.732Z,8.6
2019-03-03T07:52:18.897Z,8.58
2019-03-03T07:53:29.050Z,8.61
2019-03-03T07:54:39.181Z,8.5
2019-03-03T07:55:49.521Z,8.57
2019-03-03T07:56:59.412Z,8.55
2019-03-03T07:58:09.555Z,8.58
2019-03-03T07:59:19.667Z,8.57
2019-03-03T08:00:29.777Z,8.58
2019-03-03T08:01:39.920Z,8.45
2019-03-03T08:02:50.065Z,8.61
2019-03-03T08:04:00.191Z,8.63
2019-03-03T08:05:10.340Z,8.49
2019-03-03T08:06:20.197Z,8.49
2019-03-03T08:07:30.312Z,8.57
2019-03-03T08:08:40.445Z,8.57
2019-03-03T08:09:50.587Z,8.57
2019-03-03T08:11:00.938Z,8.53
2019-03-03T08:12:10.812Z,8.63
2019-03-03T08:13:20.953Z,8.58
2019-03-03T08:14:31.084Z,8.58
2019-03-03T08:15:42.194Z,8.74
2019-03-03T08:16:52.337Z,8.61
2019-03-03T08:18:02.459Z,8.66
2019-03-03T08:19:12.588Z,8.68
2019-03-03T08:20:22.726Z,8.71
2019-03-03T08:21:32.833Z,8.79
2019-03-03T08:22:42.957Z,8.67
2019-03-03T08:23:53.094Z,8.67
2019-03-03T08:25:03.223Z,8.77
2019-03-03T08:26:13.349Z,8.89
2019-03-03T08:27:23.484Z,8.83
2019-03-03T08:28:33.620Z,8.86
2019-03-03T08:29:43.774Z,8.77
2019-03-03T08:30:53.900Z,8.84
2019-03-03T08:32:04.020Z,8.82
2019-03-03T08:33:14.179Z,8.92
2019-03-03T08:34:24.344Z,8.89
2019-03-03T08:35:34.471Z,8.98
2019-03-03T08:36:44.589Z,8.93
2019-03-03T08:37:54.740Z,8.92
2019-03-03T08:39:04.881Z,8.9
2019-03-03T08:40:15.232Z,9.02
2019-03-03T08:41:25.372Z,8.98
2019-03-03T08:42:35.524Z,9.04
2019-03-03T08:43:45.670Z,9.09
2019-03-03T08:44:55.824Z,9.12
2019-03-03T08:46:06.005Z,9.15
2019-03-03T08:47:16.185Z,9.19
2019-03-03T08:48:26.311Z,9.25
2019-03-03T08:49:36.466Z,9.2
2019-03-03T08:50:46.601Z,9.16
2019-03-03T08:51:56.734Z,9.15
2019-03-03T08:53:06.875Z,9.16
2019-03-03T08:54:17.002Z,9.09
2019-03-03T08:55:27.128Z,9.12
2019-03-03T08:56:37.267Z,9.08
2019-03-03T08:57:47.396Z,9.17
2019-03-03T08:58:57.540Z,9.09
2019-03-03T09:00:07.666Z,9.12
2019-03-03T09:01:17.797Z,9.15
2019-03-03T09:02:27.924Z,9.15
2019-03-03T09:03:38.066Z,9.04
2019-03-03T09:04:48.211Z,9
2019-03-03T09:05:58.356Z,9.04
2019-03-03T09:07:08.746Z,9
2019-03-03T09:08:18.881Z,9.04
2019-03-03T09:09:29.043Z,9.02
2019-03-03T09:10:39.193Z,9.05
2019-03-03T09:11:49.347Z,9.02
2019-03-03T09:12:59.494Z,8.92
2019-03-03T09:14:09.647Z,8.92
2019-03-03T09:15:19.843Z,8.93
2019-03-03T09:16:30.004Z,9
2019-03-03T09:17:40.131Z,8.95
2019-03-03T09:18:50.519Z,9.01
2019-03-03T09:20:00.691Z,9.04
2019-03-03T09:21:10.834Z,9.04
2019-03-03T09:22:20.996Z,9.01
2019-03-03T09:23:31.167Z,9.04
2019-03-03T09:24:41.319Z,9.05
2019-03-03T09:25:51.510Z,9.08
2019-03-03T09:27:01.682Z,9.12
2019-03-03T09:28:11.834Z,9.08
2019-03-03T09:29:21.968Z,9.11
2019-03-03T09:30:32.134Z,9.11
2019-03-03T09:31:42.328Z,9.12
2019-03-03T09:32:52.480Z,9.16
2019-03-03T09:34:02.642Z,9.11
2019-03-03T09:35:12.802Z,9.17
2019-03-03T09:36:22.953Z,9.16
2019-03-03T09:37:33.086Z,9.27
2019-03-03T09:38:43.238Z,9.23
2019-03-03T09:39:53.430Z,9.27
2019-03-03T09:41:03.591Z,9.3
2019-03-03T09:42:13.492Z,9.38
2019-03-03T09:43:23.642Z,9.3
2019-03-03T09:44:33.851Z,9.29
2019-03-03T09:45:43.769Z,9.42
2019-03-03T09:46:53.929Z,9.37
2019-03-03T09:48:03.994Z,9.44
2019-03-03T09:49:14.406Z,9.47
2019-03-03T09:50:25.117Z,9.44
2019-03-03T09:51:34.940Z,9.41
2019-03-03T09:52:45.084Z,9.42
2019-03-03T09:53:55.261Z,9.42
2019-03-03T09:55:05.453Z,9.45
2019-03-03T09:56:15.633Z,9.42
2019-03-03T09:57:25.808Z,9.52
2019-03-03T09:58:36.195Z,9.4
2019-03-03T09:59:46.377Z,9.4
2019-03-03T10:00:56.273Z,9.53
2019-03-03T10:02:06.446Z,9.4
2019-03-03T10:03:16.853Z,9.53
2019-03-03T10:04:26.999Z,9.53
2019-03-03T10:05:37.330Z,9.53
2019-03-03T10:06:47.490Z,9.56
2019-03-03T10:07:57.658Z,9.52
2019-03-03T10:09:07.975Z,9.52
2019-03-03T10:10:18.233Z,9.59
2019-03-03T10:11:28.436Z,9.53
2019-03-03T10:12:38.636Z,9.55
2019-03-03T10:13:48.845Z,9.55
2019-03-03T10:14:58.995Z,9.53
2019-03-03T10:16:09.388Z,9.52
2019-03-03T10:17:19.558Z,9.6
2019-03-03T10:18:29.727Z,9.55
2019-03-03T10:19:39.903Z,9.67
2019-03-03T10:20:50.066Z,9.62
2019-03-03T10:22:00.243Z,9.63
2019-03-03T10:23:10.374Z,9.63
2019-03-03T10:24:20.532Z,9.67
2019-03-03T10:25:30.702Z,9.65
2019-03-03T10:26:40.853Z,9.62
2019-03-03T10:27:51.006Z,9.67
2019-03-03T10:29:01.159Z,9.6
2019-03-03T10:30:11.304Z,9.66
2019-03-03T10:31:21.727Z,9.62
2019-03-03T10:32:31.592Z,9.63
2019-03-03T10:33:41.746Z,9.63
2019-03-03T10:34:51.919Z,9.62
2019-03-03T10:36:02.081Z,9.7
2019-03-03T10:37:14.336Z,9.59
2019-03-03T10:38:24.683Z,9.56
2019-03-03T10:39:43.649Z,9.53
2019-03-03T10:40:53.812Z,9.53
2019-03-03T10:42:03.945Z,9.56
2019-03-03T10:43:14.303Z,9.58
2019-03-03T10:44:24.454Z,9.53
2019-03-03T10:45:34.571Z,9.45
2019-03-03T10:46:44.436Z,9.53
2019-03-03T10:47:54.324Z,9.59
2019-03-03T10:49:04.497Z,9.52
2019-03-03T10:50:14.648Z,9.52
2019-03-03T10:51:24.434Z,9.5
2019-03-03T10:52:34.645Z,9.56
2019-03-03T10:53:44.823Z,9.48
2019-03-03T10:54:54.947Z,9.56
2019-03-03T10:56:05.142Z,9.55
2019-03-03T10:57:15.563Z,9.55
2019-03-03T10:58:25.741Z,9.6
2019-03-03T10:59:35.641Z,9.65
2019-03-03T11:00:45.826Z,9.65
2019-03-03T11:01:56.007Z,9.75
2019-03-03T11:03:07.595Z,9.73
2019-03-03T11:04:17.762Z,9.78
2019-03-03T11:05:27.893Z,9.91
2019-03-03T11:06:37.708Z,9.89
2019-03-03T11:07:48.084Z,9.93
2019-03-03T11:08:58.266Z,9.93
2019-03-03T11:10:08.431Z,9.99
2019-03-03T11:11:18.598Z,10.02
2019-03-03T11:12:28.764Z,10.05
2019-03-03T11:13:38.918Z,10.1
2019-03-03T11:14:49.216Z,10.07
2019-03-03T11:15:59.621Z,9.99
2019-03-03T11:17:09.798Z,10.13
2019-03-03T11:18:19.951Z,10.13
2019-03-03T11:19:30.136Z,10.07
2019-03-03T11:20:40.295Z,10.11
2019-03-03T11:21:50.486Z,10.07
2019-03-03T11:23:00.767Z,10.22
2019-03-03T11:24:11.042Z,10.19
2019-03-03T11:25:21.228Z,10.15
2019-03-03T11:26:31.407Z,10.19
2019-03-03T11:27:41.583Z,10.19
2019-03-03T11:28:51.795Z,10.15
2019-03-03T11:30:02.200Z,10.11
2019-03-03T11:31:12.387Z,10.13
2019-03-03T11:32:22.549Z,10.19
2019-03-03T11:33:32.741Z,10.1
2019-03-03T11:34:42.634Z,10.13
2019-03-03T11:35:52.798Z,10.13
2019-03-03T11:37:02.949Z,10.13
2019-03-03T11:38:13.370Z,10
2019-03-03T11:39:23.749Z,10
2019-03-03T11:40:33.962Z,9.98
2019-03-03T11:41:44.121Z,10.02
2019-03-03T11:42:54.286Z,10.05
2019-03-03T11:44:04.497Z,10.07
2019-03-03T11:45:14.880Z,10
2019-03-03T11:46:25.110Z,10.02
2019-03-03T11:47:35.492Z,10.1
2019-03-03T11:48:45.657Z,10.02
2019-03-03T11:49:55.826Z,10.02
2019-03-03T11:51:06.091Z,9.96
2019-03-03T11:52:16.785Z,10.03
2019-03-03T11:53:27.023Z,10
2019-03-03T11:54:37.181Z,9.96
2019-03-03T11:55:47.350Z,9.98
2019-03-03T11:56:57.496Z,9.96
2019-03-03T11:58:07.675Z,9.93
2019-03-03T11:59:17.874Z,10.02
2019-03-03T12:00:27.778Z,9.91
2019-03-03T12:01:37.941Z,10
2019-03-03T12:02:56.284Z,9.88
2019-03-03T12:04:06.455Z,9.92
2019-03-03T12:05:16.602Z,9.93
2019-03-03T12:06:26.975Z,9.88
2019-03-03T12:07:37.135Z,9.88
2019-03-03T12:08:47.509Z,9.88
2019-03-03T12:09:57.734Z,9.81
2019-03-03T12:11:08.061Z,9.85
2019-03-03T12:12:20.315Z,9.81
2019-03-03T12:13:30.324Z,9.77
2019-03-03T12:14:40.512Z,9.74
2019-03-03T12:15:50.725Z,9.67
2019-03-03T12:17:00.880Z,9.65
2019-03-03T12:18:11.056Z,9.66
2019-03-03T12:19:21.015Z,9.62
2019-03-03T12:20:31.190Z,9.63
2019-03-03T12:21:41.355Z,9.65
2019-03-03T12:22:51.532Z,9.62
2019-03-03T12:24:01.722Z,9.6
2019-03-03T12:25:11.911Z,9.65
2019-03-03T12:26:22.068Z,9.63
2019-03-03T12:27:32.212Z,9.65
2019-03-03T12:28:42.420Z,9.58
2019-03-03T12:29:52.653Z,9.62
2019-03-03T12:31:02.801Z,9.62
2019-03-03T12:32:12.979Z,9.6
2019-03-03T12:33:23.182Z,9.59
2019-03-03T12:34:33.340Z,9.53
2019-03-03T12:35:43.157Z,9.62
2019-03-03T12:36:54.164Z,9.62
2019-03-03T12:38:04.627Z,9.6
2019-03-03T12:39:14.840Z,9.62
2019-03-03T12:40:25.019Z,9.59
2019-03-03T12:41:35.189Z,9.66
2019-03-03T12:42:45.398Z,9.62
2019-03-03T12:43:55.594Z,9.63
2019-03-03T12:45:05.523Z,9.6
2019-03-03T12:46:15.738Z,9.66
2019-03-03T12:47:25.892Z,9.5
2019-03-03T12:48:36.116Z,9.48
2019-03-03T12:49:46.324Z,9.56
2019-03-03T12:50:56.506Z,9.52
2019-03-03T12:52:06.753Z,9.55
2019-03-03T12:53:16.904Z,9.55
2019-03-03T12:54:27.132Z,9.52
2019-03-03T12:55:37.282Z,9.52
2019-03-03T12:56:47.486Z,9.53
2019-03-03T12:57:57.434Z,9.53
2019-03-03T12:59:07.693Z,9.55
2019-03-03T13:00:17.910Z,9.55
2019-03-03T13:01:28.841Z,9.65
2019-03-03T13:02:39.269Z,9.58
2019-03-03T13:03:49.488Z,9.56
2019-03-03T13:04:59.664Z,9.5
2019-03-03T13:06:09.854Z,9.53
2019-03-03T13:07:29.520Z,9.63
2019-03-03T13:08:39.745Z,9.65
2019-03-03T13:09:49.946Z,9.5
2019-03-03T13:11:00.223Z,9.6
2019-03-03T13:12:10.396Z,9.65
2019-03-03T13:13:20.604Z,9.6
2019-03-03T13:14:30.794Z,9.58
2019-03-03T13:15:41.025Z,9.63
2019-03-03T13:16:51.182Z,9.63
2019-03-03T13:18:01.527Z,9.62
2019-03-03T13:19:11.706Z,9.6
2019-03-03T13:20:21.880Z,9.65
2019-03-03T13:21:31.786Z,9.52
2019-03-03T13:22:41.999Z,9.6
2019-03-03T13:23:52.168Z,9.5
2019-03-03T13:25:02.348Z,9.59
2019-03-03T13:26:12.641Z,9.6
2019-03-03T13:27:22.833Z,9.52
2019-03-03T13:28:33.028Z,9.55
2019-03-03T13:29:43.212Z,9.53
2019-03-03T13:30:53.954Z,9.56
2019-03-03T13:32:04.653Z,9.5
2019-03-03T13:33:15.169Z,9.55
2019-03-03T13:34:25.339Z,9.56
2019-03-03T13:35:35.243Z,9.56
2019-03-03T13:36:45.472Z,9.56
2019-03-03T13:37:55.909Z,9.53
2019-03-03T13:39:05.821Z,9.5
2019-03-03T13:40:15.993Z,9.5
2019-03-03T13:41:26.173Z,9.48
2019-03-03T13:42:36.500Z,9.59
2019-03-03T13:43:47.840Z,9.53
2019-03-03T13:44:57.996Z,9.56
2019-03-03T13:46:08.442Z,9.53
2019-03-03T13:47:18.874Z,9.55
2019-03-03T13:48:29.077Z,9.52
2019-03-03T13:49:40.357Z,9.52
2019-03-03T13:50:50.276Z,9.48
2019-03-03T13:52:00.226Z,9.42
2019-03-03T13:53:10.403Z,9.4
2019-03-03T13:54:20.579Z,9.38
2019-03-03T13:55:30.976Z,9.37
2019-03-03T13:56:41.178Z,9.5
2019-03-03T13:57:51.385Z,9.44
2019-03-03T13:59:01.607Z,9.38
2019-03-03T14:00:11.812Z,9.35
2019-03-03T14:01:22.006Z,9.38
2019-03-03T14:02:47.778Z,9.35
2019-03-03T14:03:58.815Z,9.26
2019-03-03T14:05:08.981Z,9.29
2019-03-03T14:06:19.243Z,9.29
2019-03-03T14:07:31.983Z,9.3
2019-03-03T14:08:42.689Z,9.26
2019-03-03T14:09:52.900Z,9.17
2019-03-03T14:11:03.077Z,9.15
2019-03-03T14:12:13.167Z,9.2
2019-03-03T14:13:23.660Z,9.11
2019-03-03T14:14:33.868Z,9.19
2019-03-03T14:15:44.067Z,9.09
2019-03-03T14:16:54.236Z,9.11
2019-03-03T14:18:04.455Z,9.11
2019-03-03T14:19:14.690Z,9.12
2019-03-03T14:20:56.791Z,9.02
2019-03-03T14:22:07.048Z,9.09
2019-03-03T14:23:16.947Z,9.17
2019-03-03T14:24:27.203Z,9.11
2019-03-03T14:25:37.398Z,8.98
2019-03-03T14:26:47.602Z,9.02
2019-03-03T14:27:58.051Z,8.97
2019-03-03T14:29:08.214Z,9.04
2019-03-03T14:30:18.410Z,9.07
2019-03-03T14:31:28.613Z,9.05
2019-03-03T14:32:38.816Z,8.98
2019-03-03T14:33:48.987Z,9.01
2019-03-03T14:34:59.269Z,8.97
2019-03-03T14:36:09.471Z,8.9
2019-03-03T14:37:19.644Z,8.97
2019-03-03T14:38:29.855Z,9
2019-03-03T14:39:41.870Z,8.89
2019-03-03T14:40:52.061Z,9
2019-03-03T14:42:02.231Z,8.95
2019-03-03T14:43:12.387Z,8.93
2019-03-03T14:44:22.575Z,8.92
2019-03-03T14:45:32.856Z,8.89
2019-03-03T14:46:43.064Z,8.79
2019-03-03T14:47:53.246Z,8.82
2019-03-03T14:49:03.880Z,8.79
2019-03-03T14:50:14.057Z,8.86
2019-03-03T14:51:24.298Z,8.74
2019-03-03T14:52:36.345Z,8.77
2019-03-03T14:53:46.529Z,8.74
2019-03-03T14:54:56.741Z,8.77
2019-03-03T14:56:06.665Z,8.71
2019-03-03T14:57:16.880Z,8.71
2019-03-03T14:58:27.095Z,8.8
2019-03-03T14:59:37.292Z,8.68
2019-03-03T15:00:47.505Z,8.74
2019-03-03T15:01:58.659Z,8.82
2019-03-03T15:03:08.882Z,8.7
2019-03-03T15:04:19.036Z,8.7
2019-03-03T15:05:29.579Z,8.71
2019-03-03T15:06:39.754Z,8.74
2019-03-03T15:07:50.839Z,8.67
2019-03-03T15:09:01.018Z,8.83
2019-03-03T15:10:11.197Z,8.8
2019-03-03T15:11:21.411Z,8.8
2019-03-03T15:12:31.576Z,8.68
2019-03-03T15:13:41.979Z,8.74
2019-03-03T15:14:52.178Z,8.77
2019-03-03T15:16:02.505Z,8.82
2019-03-03T15:17:12.713Z,8.82
2019-03-03T15:18:23.154Z,8.77
2019-03-03T15:19:33.369Z,8.74
2019-03-03T15:20:43.536Z,8.7
2019-03-03T15:21:53.739Z,8.7
2019-03-03T15:23:03.932Z,8.71
2019-03-03T15:24:14.144Z,8.67
2019-03-03T15:25:24.366Z,8.74
2019-03-03T15:26:34.577Z,8.74
2019-03-03T15:27:44.482Z,8.74
2019-03-03T15:28:54.647Z,8.75
2019-03-03T15:30:04.849Z,8.7
2019-03-03T15:31:14.792Z,8.86
2019-03-03T15:32:25.520Z,8.75
2019-03-03T15:33:35.775Z,8.83
2019-03-03T15:35:00.672Z,8.83
2019-03-03T15:36:11.900Z,8.86
2019-03-03T15:37:22.914Z,8.77
2019-03-03T15:38:33.102Z,8.83